Time;durP1;ratioP1;P1;durP2;ratioP2;P2;SDS_P1;SDS_P2;PMS_P1;PMS_P2;Temp;Humidity;BMP_temperature;BMP_pressure;BME280_temperature;BME280_humidity;BME280_pressure;Samples;Min_cycle;Max_cycle;Signal;HPM_P1;HPM_P2
2022/01/16 00:00:16;;;;;;;10.85;9.75;;;8.20;73.90;;;;;;5068527;28;20043;-79
2022/01/16 00:05:30;;;;;;;12.18;10.90;;;8.20;74.00;;;;;;5067323;28;20058;-78
2022/01/16 00:07:57;;;;;;;15.88;11.13;;;8.10;73.80;;;;;;5067677;28;20078;-79
2022/01/16 00:10:25;;;;;;;11.55;9.93;;;8.10;73.90;;;;;;5068819;28;20132;-79
2022/01/16 00:12:52;;;;;;;13.50;10.60;;;8.00;73.90;;;;;;5068561;28;20134;-78
2022/01/16 00:15:21;;;;;;;12.88;10.48;;;8.00;73.90;;;;;;5067022;28;20379;-79
2022/01/16 00:18:08;;;;;;;12.50;11.20;;;7.90;73.70;;;;;;5065386;28;20055;-79
2022/01/16 00:20:35;;;;;;;13.20;10.40;;;7.90;73.80;;;;;;5065264;28;20377;-80
2022/01/16 00:23:05;;;;;;;16.63;11.32;;;7.80;73.70;;;;;;5066974;28;20032;-78
2022/01/16 00:25:31;;;;;;;15.05;9.93;;;7.80;73.70;;;;;;5065471;28;20274;-78
2022/01/16 00:27:57;;;;;;;13.50;10.15;;;7.70;73.60;;;;;;5066041;28;20407;-78
2022/01/16 00:30:23;;;;;;;14.82;11.05;;;7.70;73.70;;;;;;5065944;28;20043;-78
2022/01/16 00:32:49;;;;;;;17.00;11.73;;;7.60;73.50;;;;;;5066070;28;20024;-79
2022/01/16 00:35:16;;;;;;;11.50;9.95;;;7.60;73.60;;;;;;5066023;28;20029;-78
2022/01/16 00:37:42;;;;;;;14.65;10.15;;;7.60;73.60;;;;;;5067844;28;20180;-78
2022/01/16 00:40:10;;;;;;;12.48;10.73;;;7.60;74.20;;;;;;5070290;28;20078;-79
2022/01/16 00:42:36;;;;;;;13.13;10.73;;;7.50;73.50;;;;;;5070203;28;20411;-79
2022/01/16 00:45:04;;;;;;;11.60;10.00;;;7.50;73.50;;;;;;5069503;28;20067;-79
2022/01/16 00:47:30;;;;;;;11.55;10.25;;;7.50;73.50;;;;;;5068398;28;20028;-78
2022/01/16 00:49:56;;;;;;;13.77;10.43;;;7.50;73.50;;;;;;5068811;28;20036;-79
2022/01/16 00:52:22;;;;;;;14.85;11.77;;;7.50;73.50;;;;;;5069451;28;20469;-78
2022/01/16 00:54:48;;;;;;;13.82;11.57;;;7.50;73.50;;;;;;5067939;28;20515;-79
2022/01/16 00:57:14;;;;;;;12.98;10.98;;;7.50;73.50;;;;;;5067282;28;20024;-80
2022/01/16 00:59:40;;;;;;;12.48;10.57;;;7.50;73.50;;;;;;5067840;28;20029;-81
2022/01/16 01:02:06;;;;;;;12.05;10.60;;;7.60;73.60;;;;;;5069513;28;20371;-81
2022/01/16 01:04:32;;;;;;;13.13;10.15;;;7.50;73.40;;;;;;5068791;28;20039;-81
2022/01/16 01:06:58;;;;;;;11.98;10.27;;;7.50;73.40;;;;;;5068546;28;20025;-80
2022/01/16 01:09:24;;;;;;;12.45;11.13;;;7.50;73.40;;;;;;5068791;28;20428;-80
2022/01/16 01:11:50;;;;;;;14.30;10.65;;;7.50;73.50;;;;;;5069013;28;20036;-81
2022/01/16 01:16:55;;;;;;;12.02;10.15;;;7.40;73.30;;;;;;5068489;28;20033;-80
2022/01/16 01:19:29;;;;;;;12.73;10.52;;;7.40;73.30;;;;;;5067227;28;20078;-80
2022/01/16 01:21:56;;;;;;;11.25;10.13;;;7.50;73.40;;;;;;5068751;28;20051;-81
2022/01/16 01:24:24;;;;;;;12.55;10.90;;;7.50;73.50;;;;;;5068826;28;20027;-78
2022/01/16 01:29:28;;;;;;;12.85;10.00;;;7.40;73.30;;;;;;5068534;28;20036;-78
2022/01/16 01:31:55;;;;;;;12.95;10.68;;;7.40;73.30;;;;;;5068120;28;20313;-79
2022/01/16 01:34:21;;;;;;;12.82;10.23;;;7.40;73.30;;;;;;5068433;28;20052;-81
2022/01/16 01:36:48;;;;;;;11.50;9.55;;;7.40;73.30;;;;;;5067962;28;20094;-80
2022/01/16 01:39:16;;;;;;;11.30;9.88;;;7.40;73.20;;;;;;5068529;28;20043;-82
2022/01/16 01:41:43;;;;;;;11.82;10.63;;;7.40;73.30;;;;;;5068672;28;20919;-81
2022/01/16 01:52:24;;;;;;;11.80;10.55;;;7.40;73.20;;;;;;5068148;28;20093;-80
2022/01/16 01:54:51;;;;;;;12.15;10.65;;;7.40;73.20;;;;;;5067985;28;20101;-79
2022/01/16 01:57:18;;;;;;;14.13;10.40;;;7.40;73.20;;;;;;5066467;28;20029;-79
2022/01/16 01:59:44;;;;;;;12.50;10.32;;;7.40;73.20;;;;;;5067869;28;20123;-79
2022/01/16 02:02:10;;;;;;;13.10;9.95;;;7.40;73.20;;;;;;5068057;28;20364;-79
2022/01/16 02:04:36;;;;;;;13.68;11.25;;;7.40;73.20;;;;;;5068334;28;20150;-79
2022/01/16 02:07:03;;;;;;;13.23;10.35;;;7.40;73.20;;;;;;5067136;28;20426;-78
2022/01/16 02:09:31;;;;;;;12.00;9.90;;;7.40;73.20;;;;;;5051849;28;20039;-78
2022/01/16 02:11:58;;;;;;;13.85;10.88;;;7.40;73.20;;;;;;5047373;28;20036;-78
2022/01/16 02:14:45;;;;;;;12.52;11.13;;;7.40;73.20;;;;;;5063113;28;20021;-78
2022/01/16 02:28:35;;;;;;;13.90;10.82;;;7.40;73.20;;;;;;5066869;28;20112;-81
2022/01/16 02:36:33;;;;;;;11.65;10.32;;;7.40;73.10;;;;;;5066151;28;20032;-81
2022/01/16 02:39:09;;;;;;;12.80;10.23;;;7.40;73.10;;;;;;5066761;28;20024;-81
2022/01/16 02:41:35;;;;;;;11.73;10.15;;;7.40;73.10;;;;;;5067606;28;20040;-81
2022/01/16 02:44:11;;;;;;;11.95;10.23;;;7.40;73.10;;;;;;5068079;28;20025;-81
2022/01/16 02:46:39;;;;;;;11.98;10.73;;;7.40;73.10;;;;;;5055043;28;20043;-81
2022/01/16 02:49:17;;;;;;;12.70;11.10;;;7.50;73.30;;;;;;5050512;28;20115;-81
2022/01/16 02:51:43;;;;;;;14.15;9.95;;;7.40;73.10;;;;;;5050305;28;20029;-81
2022/01/16 02:54:09;;;;;;;13.25;10.57;;;7.50;73.30;;;;;;5048910;28;20029;-83
2022/01/16 02:56:35;;;;;;;13.88;10.63;;;7.50;73.20;;;;;;5032694;28;20033;-81
2022/01/16 02:59:01;;;;;;;12.23;10.68;;;7.50;73.20;;;;;;5050291;28;20208;-80
2022/01/16 03:01:27;;;;;;;12.48;10.02;;;7.50;73.20;;;;;;5049581;28;20148;-80
2022/01/16 03:03:53;;;;;;;13.80;9.93;;;7.50;73.20;;;;;;5049116;28;20402;-79
2022/01/16 03:06:19;;;;;;;14.75;10.48;;;7.50;73.20;;;;;;5049903;28;20036;-79
2022/01/16 03:08:45;;;;;;;17.75;10.75;;;7.50;73.20;;;;;;5050154;28;20506;-80
2022/01/16 03:11:20;;;;;;;13.43;10.18;;;7.50;73.20;;;;;;5065365;28;20406;-80
2022/01/16 03:13:48;;;;;;;12.55;9.38;;;7.50;73.10;;;;;;5032968;28;20391;-80
2022/01/16 03:16:20;;;;;;;12.85;9.90;;;7.50;73.20;;;;;;5050351;28;20036;-80
2022/01/16 03:24:17;;;;;;;11.57;9.77;;;7.40;73.00;;;;;;5050205;28;20131;-80
2022/01/16 03:26:43;;;;;;;10.30;9.18;;;7.40;73.00;;;;;;5049712;28;20454;-80
2022/01/16 03:29:09;;;;;;;12.55;10.65;;;7.40;73.10;;;;;;5051601;28;20086;-80
2022/01/16 03:31:35;;;;;;;11.88;10.23;;;7.30;73.00;;;;;;5049831;28;20029;-80
2022/01/16 03:34:02;;;;;;;12.27;10.32;;;7.30;73.00;;;;;;5066159;28;20112;-79
2022/01/16 03:36:28;;;;;;;10.90;9.45;;;7.30;73.00;;;;;;5051180;28;20094;-81
2022/01/16 03:38:54;;;;;;;11.98;9.98;;;7.30;73.10;;;;;;5050511;28;20029;-80
2022/01/16 03:41:20;;;;;;;11.52;9.98;;;7.30;73.10;;;;;;5050916;28;20505;-78
2022/01/16 03:43:46;;;;;;;13.13;10.80;;;7.30;73.20;;;;;;5048833;28;20033;-80
2022/01/16 03:46:12;;;;;;;11.55;9.68;;;7.30;73.10;;;;;;5049049;28;20633;-80
2022/01/16 03:48:38;;;;;;;12.57;9.13;;;7.30;73.10;;;;;;5048706;28;20033;-81
2022/01/16 03:51:04;;;;;;;11.70;9.48;;;7.30;73.10;;;;;;5050367;28;20552;-81
2022/01/16 03:53:30;;;;;;;10.48;9.32;;;7.20;73.00;;;;;;5066308;28;20021;-79
2022/01/16 03:55:56;;;;;;;11.90;9.43;;;7.20;73.00;;;;;;5065273;28;20033;-83
2022/01/16 03:58:22;;;;;;;11.55;9.20;;;7.20;73.00;;;;;;5032172;28;20021;-82
2022/01/16 04:00:48;;;;;;;13.02;10.02;;;7.20;73.10;;;;;;5049632;28;20670;-79
2022/01/16 04:03:14;;;;;;;11.48;9.07;;;7.20;73.10;;;;;;5049188;28;20057;-78
2022/01/16 04:05:40;;;;;;;12.48;10.45;;;7.10;73.00;;;;;;5049999;28;20039;-79
2022/01/16 04:08:06;;;;;;;12.77;10.27;;;7.10;73.00;;;;;;5049554;28;20029;-81
2022/01/16 04:10:32;;;;;;;11.32;8.95;;;7.10;73.00;;;;;;5049369;28;20094;-82
2022/01/16 04:12:58;;;;;;;11.75;9.68;;;7.10;73.00;;;;;;5067371;28;20029;-82
2022/01/16 04:15:32;;;;;;;15.02;10.23;;;7.10;73.10;;;;;;5053708;28;20028;-83
2022/01/16 04:18:00;;;;;;;10.95;9.85;;;7.00;72.90;;;;;;5053337;28;20040;-82
2022/01/16 04:20:26;;;;;;;10.50;8.95;;;7.00;72.90;;;;;;5053001;28;20052;-81
2022/01/16 04:22:52;;;;;;;10.00;8.95;;;7.00;73.00;;;;;;5053075;28;20021;-82
2022/01/16 04:25:18;;;;;;;10.55;8.90;;;7.00;73.00;;;;;;5052926;28;20098;-81
2022/01/16 04:27:45;;;;;;;11.48;9.77;;;6.90;72.80;;;;;;5068666;28;20064;-81
2022/01/16 04:30:11;;;;;;;11.48;9.57;;;6.90;72.90;;;;;;5052855;28;20047;-81
2022/01/16 04:32:37;;;;;;;12.40;10.10;;;7.00;73.10;;;;;;5051969;28;20486;-80
2022/01/16 04:35:04;;;;;;;12.30;11.02;;;6.90;72.90;;;;;;5068245;28;20428;-81
2022/01/16 04:37:30;;;;;;;10.13;8.98;;;6.90;72.90;;;;;;5052661;28;20064;-79
2022/01/16 04:40:00;;;;;;;13.93;10.15;;;6.90;72.90;;;;;;5052590;28;20060;-79
2022/01/16 04:45:11;;;;;;;10.90;9.38;;;6.90;72.90;;;;;;5052337;28;20124;-79
2022/01/16 04:47:37;;;;;;;11.98;10.00;;;6.90;72.90;;;;;;5051653;28;20376;-79
2022/01/16 04:50:04;;;;;;;11.48;10.00;;;6.90;72.90;;;;;;5052408;28;20036;-79
2022/01/16 04:52:30;;;;;;;10.63;8.93;;;6.90;73.40;;;;;;5067697;28;20052;-79
2022/01/16 04:54:56;;;;;;;10.68;8.77;;;6.90;72.90;;;;;;5052390;28;20071;-85
2022/01/16 04:57:22;;;;;;;11.27;9.00;;;6.90;72.80;;;;;;5052797;28;20154;-86
2022/01/16 04:59:48;;;;;;;10.15;9.05;;;6.90;72.80;;;;;;5068298;28;20079;-83
2022/01/16 05:02:14;;;;;;;10.30;9.02;;;7.00;73.00;;;;;;5052601;28;20121;-85
2022/01/16 05:04:40;;;;;;;10.68;9.07;;;7.00;73.00;;;;;;5051402;28;20496;-84
2022/01/16 05:07:07;;;;;;;12.15;9.15;;;6.90;72.80;;;;;;5052219;28;20029;-81
2022/01/16 05:09:33;;;;;;;11.98;9.60;;;7.00;73.00;;;;;;5067937;28;20120;-81
2022/01/16 05:12:02;;;;;;;12.52;10.13;;;7.00;73.00;;;;;;5067999;28;20025;-80
2022/01/16 05:17:13;;;;;;;10.88;9.38;;;7.00;72.90;;;;;;5051237;28;20188;-80
2022/01/16 05:19:39;;;;;;;11.55;9.10;;;7.00;72.90;;;;;;5067104;28;20045;-80
2022/01/16 05:22:05;;;;;;;11.18;9.40;;;7.00;72.90;;;;;;5067517;28;20025;-81
2022/01/16 05:24:34;;;;;;;13.40;10.55;;;7.00;72.90;;;;;;5051960;28;20025;-81
2022/01/16 05:27:00;;;;;;;10.10;8.55;;;7.00;72.90;;;;;;5050566;28;20148;-81
2022/01/16 05:29:26;;;;;;;12.10;10.25;;;7.00;72.90;;;;;;5051913;28;20395;-80
2022/01/16 05:31:52;;;;;;;13.73;9.65;;;7.00;73.00;;;;;;5051965;28;20063;-81
2022/01/16 05:34:19;;;;;;;13.30;10.40;;;7.10;73.10;;;;;;5052133;28;20025;-81
2022/01/16 05:36:46;;;;;;;13.95;11.07;;;7.10;73.10;;;;;;5050964;28;20438;-81
2022/01/16 05:39:12;;;;;;;14.80;12.57;;;7.10;73.10;;;;;;5050435;28;20021;-80
2022/01/16 05:41:38;;;;;;;18.85;13.32;;;7.10;73.10;;;;;;5052073;28;20036;-81
2022/01/16 05:44:05;;;;;;;17.88;14.10;;;7.10;73.10;;;;;;5050686;28;20033;-81
2022/01/16 05:46:31;;;;;;;23.17;15.10;;;7.20;73.30;;;;;;5053297;28;20505;-80
2022/01/16 05:48:57;;;;;;;18.67;15.80;;;7.20;73.20;;;;;;5051558;28;20029;-82
2022/01/16 05:51:23;;;;;;;20.63;16.08;;;7.20;73.20;;;;;;5050735;28;20067;-81
2022/01/16 05:53:51;;;;;;;22.20;17.02;;;7.30;73.40;;;;;;5051705;28;20036;-81
2022/01/16 05:56:17;;;;;;;22.77;19.02;;;7.30;73.40;;;;;;5051811;28;20060;-81
2022/01/16 05:58:43;;;;;;;20.38;17.13;;;7.30;73.30;;;;;;5064535;28;20051;-81
2022/01/16 06:01:09;;;;;;;22.92;18.83;;;7.30;73.30;;;;;;5080307;28;20028;-80
2022/01/16 06:03:35;;;;;;;26.38;18.65;;;7.40;73.50;;;;;;5091743;28;20008;-81
2022/01/16 06:06:01;;;;;;;21.83;18.45;;;7.40;73.50;;;;;;5091572;28;20033;-79
2022/01/16 06:08:28;;;;;;;25.65;21.20;;;7.40;73.50;;;;;;5083962;28;20032;-84
2022/01/16 06:10:54;;;;;;;24.08;19.65;;;7.40;73.50;;;;;;5072894;28;20056;-87
2022/01/16 06:13:20;;;;;;;26.58;20.45;;;7.50;73.70;;;;;;5071609;28;20028;-85
2022/01/16 06:15:46;;;;;;;26.58;20.48;;;7.50;73.60;;;;;;5088885;28;20013;-85
2022/01/16 06:18:13;;;;;;;24.50;20.33;;;7.50;73.60;;;;;;5078789;28;20032;-85
2022/01/16 06:20:41;;;;;;;27.25;21.83;;;7.50;73.60;;;;;;5091898;28;20047;-86
2022/01/16 06:23:08;;;;;;;24.17;20.05;;;7.60;73.70;;;;;;5090817;28;20096;-81
2022/01/16 06:25:34;;;;;;;24.13;19.58;;;7.60;73.70;;;;;;5078435;28;20035;-81
2022/01/16 06:28:00;;;;;;;27.25;20.92;;;7.60;73.70;;;;;;5069360;28;20028;-88
2022/01/16 06:30:26;;;;;;;24.83;19.30;;;7.70;73.90;;;;;;5069522;28;20045;-85
2022/01/16 06:32:52;;;;;;;25.10;20.77;;;7.70;73.90;;;;;;5070558;28;20390;-87
2022/01/16 06:35:18;;;;;;;24.42;19.98;;;7.70;73.90;;;;;;5069530;28;20028;-90
2022/01/16 06:37:45;;;;;;;20.98;18.58;;;7.70;73.90;;;;;;5068056;28;20067;-78
2022/01/16 06:40:13;;;;;;;24.48;18.80;;;7.80;74.00;;;;;;5068322;28;20032;-83
2022/01/16 06:42:39;;;;;;;26.00;20.65;;;7.80;74.00;;;;;;5066790;28;20032;-82
2022/01/16 06:45:07;;;;;;;22.98;19.95;;;7.80;74.00;;;;;;5067118;28;20036;-86
2022/01/16 06:47:33;;;;;;;20.88;17.65;;;7.90;74.20;;;;;;5067593;28;20032;-86
2022/01/16 06:49:59;;;;;;;23.50;19.73;;;7.90;74.10;;;;;;5066960;28;20296;-85
2022/01/16 06:52:25;;;;;;;22.38;18.92;;;7.90;74.10;;;;;;5068092;28;20688;-80
2022/01/16 06:54:51;;;;;;;25.42;19.60;;;7.90;74.10;;;;;;5067124;28;20115;-82
2022/01/16 06:57:17;;;;;;;22.17;17.33;;;7.90;74.10;;;;;;5048626;28;20123;-80
2022/01/16 06:59:45;;;;;;;19.98;15.43;;;7.90;74.10;;;;;;5061972;28;20121;-79
2022/01/16 07:02:12;;;;;;;18.42;16.40;;;7.90;74.30;;;;;;5066609;28;20025;-81
2022/01/16 07:04:38;;;;;;;19.60;15.65;;;8.00;74.60;;;;;;5066910;28;20064;-79
2022/01/16 07:07:04;;;;;;;20.27;15.13;;;8.00;74.70;;;;;;5071212;28;20071;-80
2022/01/16 07:09:31;;;;;;;19.75;15.45;;;8.10;74.90;;;;;;5066989;28;20158;-77
2022/01/16 07:11:57;;;;;;;19.52;17.35;;;8.00;74.70;;;;;;5066125;28;20233;-76
2022/01/16 07:14:23;;;;;;;18.08;15.23;;;8.10;74.90;;;;;;5065094;28;20045;-77
2022/01/16 07:16:49;;;;;;;17.38;14.38;;;8.00;74.80;;;;;;5066893;28;20037;-78
2022/01/16 07:19:15;;;;;;;20.08;15.75;;;7.90;74.60;;;;;;5065727;28;20480;-76
2022/01/16 07:21:41;;;;;;;19.95;16.98;;;7.90;74.80;;;;;;5064643;28;20051;-76
2022/01/16 07:24:07;;;;;;;21.08;17.65;;;7.90;74.90;;;;;;5066129;28;20028;-77
2022/01/16 07:26:33;;;;;;;20.63;15.88;;;7.90;74.90;;;;;;5065287;28;20051;-77
2022/01/16 07:28:59;;;;;;;20.60;16.52;;;7.80;74.80;;;;;;5066205;28;20028;-78
2022/01/16 07:31:25;;;;;;;18.80;14.57;;;7.80;74.90;;;;;;5066260;28;20506;-75
2022/01/16 07:33:51;;;;;;;19.00;15.15;;;7.70;74.80;;;;;;5066388;28;20028;-76
2022/01/16 07:36:17;;;;;;;18.95;16.20;;;7.70;74.90;;;;;;5048211;28;20685;-76
2022/01/16 07:38:43;;;;;;;22.77;17.80;;;7.60;74.70;;;;;;5066252;28;20145;-77
2022/01/16 07:41:09;;;;;;;19.58;16.88;;;7.60;74.80;;;;;;5064569;28;20035;-76
2022/01/16 07:43:35;;;;;;;18.65;16.48;;;7.50;74.70;;;;;;5064650;28;20033;-76
2022/01/16 07:46:01;;;;;;;20.35;16.33;;;7.50;74.70;;;;;;5066784;28;20029;-77
2022/01/16 07:48:27;;;;;;;19.38;16.73;;;7.50;74.80;;;;;;5069929;28;20096;-79
2022/01/16 07:50:53;;;;;;;20.23;17.02;;;7.40;74.60;;;;;;5070838;28;20137;-78
2022/01/16 07:53:19;;;;;;;22.65;17.35;;;7.40;74.70;;;;;;5070901;28;20540;-78
2022/01/16 07:55:45;;;;;;;21.95;16.95;;;7.30;74.60;;;;;;5070021;28;20036;-83
2022/01/16 07:58:11;;;;;;;20.95;17.13;;;7.30;74.60;;;;;;5069059;28;20056;-78
2022/01/16 08:00:37;;;;;;;21.38;17.10;;;7.30;74.70;;;;;;5070242;28;20036;-79
2022/01/16 08:03:04;;;;;;;19.45;17.05;;;7.20;74.60;;;;;;5070473;28;20194;-76
2022/01/16 08:05:30;;;;;;;22.27;17.25;;;7.20;74.60;;;;;;5068880;28;20036;-82
2022/01/16 08:07:56;;;;;;;20.25;16.77;;;7.10;74.50;;;;;;5086230;28;20508;-88
2022/01/16 08:10:22;;;;;;;21.75;18.30;;;7.10;74.60;;;;;;5045604;28;20120;-83
2022/01/16 08:12:48;;;;;;;20.90;17.73;;;7.00;74.40;;;;;;5061489;28;20115;-81
2022/01/16 08:15:14;;;;;;;18.20;16.30;;;7.00;74.50;;;;;;5070179;28;20069;-80
2022/01/16 08:17:40;;;;;;;19.83;16.60;;;6.90;74.30;;;;;;5069357;28;20067;-80
2022/01/16 08:20:08;;;;;;;21.65;18.02;;;6.90;74.40;;;;;;5070293;28;20040;-80
2022/01/16 08:22:35;;;;;;;21.20;17.52;;;6.90;74.50;;;;;;5070598;28;20033;-80
2022/01/16 08:25:02;;;;;;;20.45;16.48;;;6.90;74.40;;;;;;5068792;28;20112;-79
2022/01/16 08:27:28;;;;;;;22.17;16.35;;;6.90;74.50;;;;;;5068228;28;20056;-78
2022/01/16 08:29:54;;;;;;;21.05;17.83;;;6.80;74.30;;;;;;5068395;28;20064;-78
2022/01/16 08:32:20;;;;;;;21.45;17.45;;;6.80;74.40;;;;;;5069945;28;20119;-79
2022/01/16 08:34:46;;;;;;;19.90;16.65;;;6.90;74.60;;;;;;5070465;28;20128;-79
2022/01/16 08:37:12;;;;;;;20.73;17.55;;;6.90;74.60;;;;;;5070313;28;20024;-79
2022/01/16 08:39:38;;;;;;;21.70;19.02;;;6.90;74.60;;;;;;5069750;28;20032;-77
2022/01/16 08:42:05;;;;;;;21.73;18.35;;;6.90;74.60;;;;;;5067905;28;20492;-78
2022/01/16 08:44:31;;;;;;;22.38;18.70;;;6.90;74.60;;;;;;5070158;28;20431;-77
2022/01/16 08:46:57;;;;;;;21.90;18.27;;;7.00;74.70;;;;;;5052304;28;20069;-82
2022/01/16 08:49:23;;;;;;;20.80;17.88;;;7.00;74.60;;;;;;5069086;28;20467;-88
2022/01/16 08:51:49;;;;;;;23.20;18.52;;;7.00;74.60;;;;;;5069001;28;20028;-79
2022/01/16 08:54:15;;;;;;;23.05;18.27;;;7.00;74.60;;;;;;5069604;28;20059;-76
2022/01/16 08:56:42;;;;;;;19.98;17.88;;;7.10;74.80;;;;;;5069689;28;20367;-77
2022/01/16 08:59:08;;;;;;;22.52;18.08;;;7.10;74.70;;;;;;5068807;28;20028;-77
2022/01/16 09:01:34;;;;;;;22.92;18.33;;;7.20;74.80;;;;;;5069915;28;20021;-85
2022/01/16 09:04:00;;;;;;;21.13;18.73;;;7.20;74.80;;;;;;5069553;28;20119;-82
2022/01/16 09:06:27;;;;;;;21.85;17.05;;;7.20;74.70;;;;;;5052780;28;20028;-82
2022/01/16 09:08:54;;;;;;;19.27;17.23;;;7.20;74.70;;;;;;5068248;28;20085;-80
2022/01/16 09:11:25;;;;;;;17.98;15.95;;;7.20;74.70;;;;;;5068866;28;20045;-79
2022/01/16 09:13:52;;;;;;;19.50;17.23;;;7.30;74.80;;;;;;5069500;28;20479;-79
2022/01/16 09:16:19;;;;;;;19.60;16.75;;;7.30;75.20;;;;;;5068347;28;20043;-84
2022/01/16 09:18:47;;;;;;;20.13;16.92;;;7.40;74.80;;;;;;5070273;28;20047;-91
2022/01/16 09:21:17;;;;;;;18.90;16.50;;;7.40;74.80;;;;;;5070905;28;20506;-86
2022/01/16 09:23:48;;;;;;;21.25;18.85;;;7.40;74.80;;;;;;5070538;28;20043;-88
2022/01/16 09:26:15;;;;;;;20.42;17.80;;;7.40;74.70;;;;;;5070179;28;20479;-83
2022/01/16 09:28:42;;;;;;;19.67;17.33;;;7.50;74.80;;;;;;5069546;28;20033;-80
2022/01/16 09:31:08;;;;;;;19.48;16.98;;;7.50;74.80;;;;;;5065139;28;20043;-82
2022/01/16 09:33:34;;;;;;;18.77;16.73;;;7.60;74.90;;;;;;5065240;28;20032;-83
2022/01/16 09:36:02;;;;;;;20.80;17.77;;;7.60;74.80;;;;;;5047312;28;20029;-80
2022/01/16 09:38:28;;;;;;;18.83;16.10;;;7.60;74.70;;;;;;5053754;28;20012;-78
2022/01/16 09:40:55;;;;;;;20.40;17.63;;;7.70;74.80;;;;;;5066672;28;20033;-80
2022/01/16 09:43:22;;;;;;;18.95;16.95;;;7.80;74.90;;;;;;5068360;28;20064;-81
2022/01/16 09:45:48;;;;;;;19.77;17.67;;;7.80;74.80;;;;;;5050798;28;20032;-82
2022/01/16 09:48:16;;;;;;;19.33;17.27;;;8.00;75.00;;;;;;5067283;28;20033;-81
2022/01/16 09:50:42;;;;;;;21.60;18.88;;;8.00;74.90;;;;;;5051423;28;20135;-86
2022/01/16 09:53:08;;;;;;;20.50;18.23;;;8.10;74.90;;;;;;5069459;28;20039;-87
2022/01/16 09:55:34;;;;;;;20.38;18.17;;;8.20;75.00;;;;;;5067941;28;20036;-87
2022/01/16 09:58:00;;;;;;;20.90;17.00;;;8.30;75.00;;;;;;5068796;28;20472;-88
2022/01/16 10:00:27;;;;;;;19.95;17.48;;;8.40;75.00;;;;;;5069658;28;20028;-89
2022/01/16 10:02:54;;;;;;;21.45;18.58;;;8.40;74.80;;;;;;5069032;28;20028;-89
2022/01/16 10:05:35;;;;;;;21.25;18.52;;;8.50;74.80;;;;;;5068128;28;20028;-80
2022/01/16 10:08:07;;;;;;;19.63;17.45;;;8.60;74.90;;;;;;5050049;28;20056;-79
2022/01/16 10:10:37;;;;;;;19.55;17.00;;;8.60;74.80;;;;;;5065618;28;20036;-79
2022/01/16 10:13:20;;;;;;;20.15;17.52;;;8.70;74.90;;;;;;5066912;28;20156;-80
2022/01/16 10:15:55;;;;;;;22.02;19.27;;;8.80;75.00;;;;;;5068174;28;20036;-78
2022/01/16 10:18:42;;;;;;;19.63;17.42;;;8.90;75.10;;;;;;5062408;28;20025;-78
2022/01/16 10:21:09;;;;;;;20.08;17.95;;;8.90;74.90;;;;;;5046204;28;20642;-79
2022/01/16 10:23:40;;;;;;;20.52;18.33;;;9.00;74.80;;;;;;5046912;28;20032;-80
2022/01/16 10:26:18;;;;;;;20.00;17.90;;;9.10;75.00;;;;;;5046597;28;20028;-79
2022/01/16 10:28:44;;;;;;;20.80;18.35;;;9.20;75.00;;;;;;5062365;28;20344;-80
2022/01/16 10:31:22;;;;;;;21.13;18.85;;;9.30;75.00;;;;;;5046367;28;20511;-80
2022/01/16 10:33:49;;;;;;;21.42;19.00;;;9.30;74.90;;;;;;5047269;28;20032;-79
2022/01/16 10:36:32;;;;;;;20.50;18.00;;;9.30;74.80;;;;;;5047955;28;20480;-78
2022/01/16 10:39:16;;;;;;;22.52;20.13;;;9.40;75.00;;;;;;5057111;28;20028;-81
2022/01/16 10:41:42;;;;;;;20.10;17.92;;;9.40;75.00;;;;;;5067283;28;20039;-80
2022/01/16 10:44:30;;;;;;;21.85;18.67;;;9.40;75.00;;;;;;5067342;28;20562;-80
2022/01/16 10:46:57;;;;;;;22.50;19.00;;;9.50;75.20;;;;;;5065574;28;20040;-80
2022/01/16 10:49:23;;;;;;;20.83;18.45;;;9.50;75.10;;;;;;5065968;28;20024;-78
2022/01/16 10:52:09;;;;;;;21.75;18.70;;;9.60;75.10;;;;;;5066298;28;20055;-79
2022/01/16 10:54:41;;;;;;;23.23;19.00;;;9.80;75.30;;;;;;5065549;28;20394;-79
2022/01/16 10:57:23;;;;;;;22.75;19.35;;;9.90;75.10;;;;;;5065443;28;20530;-80
2022/01/16 11:00:02;;;;;;;25.67;19.65;;;9.90;75.00;;;;;;5047539;28;20028;-80
2022/01/16 11:02:30;;;;;;;22.85;19.83;;;10.00;75.00;;;;;;5047574;28;20052;-82
2022/01/16 11:05:11;;;;;;;25.42;18.17;;;10.00;74.90;;;;;;5047089;28;20467;-77
2022/01/16 11:07:38;;;;;;;22.98;19.98;;;10.00;75.00;;;;;;5047295;28;20055;-79
2022/01/16 11:10:26;;;;;;;24.80;18.95;;;10.00;75.10;;;;;;5045691;28;20037;-85
2022/01/16 11:12:54;;;;;;;21.50;18.80;;;10.00;75.20;;;;;;5044963;28;20066;-78
2022/01/16 11:15:20;;;;;;;23.98;19.55;;;10.10;75.40;;;;;;5045373;28;20041;-78
2022/01/16 11:17:46;;;;;;;22.83;18.60;;;10.20;75.70;;;;;;5048323;28;20090;-77
2022/01/16 11:20:14;;;;;;;25.77;20.98;;;10.20;75.60;;;;;;5064880;28;20060;-77
2022/01/16 11:23:00;;;;;;;23.80;20.98;;;10.30;76.20;;;;;;5065226;28;20471;-77
2022/01/16 11:25:31;;;;;;;26.70;20.98;;;10.50;75.90;;;;;;5067004;28;20044;-77
2022/01/16 11:28:13;;;;;;;25.67;21.17;;;10.60;75.90;;;;;;5065171;28;20039;-77
2022/01/16 11:30:47;;;;;;;22.48;19.85;;;10.70;75.80;;;;;;5065824;28;20094;-81
2022/01/16 11:33:21;;;;;;;24.05;20.38;;;10.90;75.90;;;;;;5068568;28;20067;-82
2022/01/16 11:36:06;;;;;;;23.83;20.42;;;11.10;76.00;;;;;;5069096;28;20043;-82
2022/01/16 11:38:39;;;;;;;24.60;20.80;;;11.30;76.10;;;;;;5051959;28;20041;-82
2022/01/16 11:41:25;;;;;;;23.63;20.20;;;11.50;76.60;;;;;;5068169;28;20264;-84
2022/01/16 11:43:54;;;;;;;23.70;20.95;;;11.70;76.10;;;;;;5054934;28;20029;-79
2022/01/16 11:46:28;;;;;;;23.13;20.20;;;11.80;76.00;;;;;;5053737;28;20441;-78
2022/01/16 11:49:03;;;;;;;25.92;22.02;;;11.90;76.10;;;;;;5068916;28;20051;-81
2022/01/16 11:51:35;;;;;;;25.38;21.92;;;11.90;76.10;;;;;;5068969;28;20428;-83
2022/01/16 11:54:01;;;;;;;28.05;21.40;;;12.00;76.20;;;;;;5066814;28;20143;-79
2022/01/16 11:56:40;;;;;;;24.05;19.63;;;12.00;76.10;;;;;;5066516;28;20024;-79
2022/01/16 11:59:38;;;;;;;25.17;22.48;;;12.00;76.10;;;;;;5066105;28;20124;-79
2022/01/16 12:02:17;;;;;;;28.02;21.98;;;12.10;76.30;;;;;;5063005;28;20297;-79
2022/01/16 12:04:43;;;;;;;24.33;21.80;;;12.20;76.50;;;;;;5067293;28;20036;-80
2022/01/16 12:07:12;;;;;;;29.35;21.20;;;12.20;77.00;;;;;;5067503;28;20032;-80
2022/01/16 12:12:15;;;;;;;21.60;19.30;;;12.20;76.50;;;;;;5067232;28;20029;-79
2022/01/16 12:15:00;;;;;;;23.88;19.10;;;12.20;76.50;;;;;;5065792;28;20503;-80
2022/01/16 12:17:33;;;;;;;24.65;19.15;;;12.20;76.60;;;;;;5065552;28;20525;-79
2022/01/16 12:20:20;;;;;;;20.40;18.27;;;12.20;76.60;;;;;;5066042;28;20090;-79
2022/01/16 12:23:05;;;;;;;20.98;18.55;;;12.30;76.70;;;;;;5066827;28;20064;-80
2022/01/16 12:25:42;;;;;;;23.02;17.70;;;12.30;76.70;;;;;;5063211;28;20028;-78
2022/01/16 12:28:08;;;;;;;21.90;18.98;;;12.30;76.50;;;;;;5066959;28;20115;-80
2022/01/16 12:30:59;;;;;;;18.98;16.77;;;12.40;76.60;;;;;;5064879;28;20448;-81
2022/01/16 12:33:42;;;;;;;20.33;17.60;;;12.40;76.40;;;;;;5068245;28;20127;-89
2022/01/16 12:36:08;;;;;;;18.95;16.83;;;12.40;76.40;;;;;;5068857;28;20467;-79
2022/01/16 12:38:37;;;;;;;19.85;17.55;;;12.40;76.40;;;;;;5069774;28;20031;-80
2022/01/16 12:41:08;;;;;;;19.55;16.40;;;12.30;76.20;;;;;;5067303;28;20067;-79
2022/01/16 12:43:41;;;;;;;19.92;16.88;;;12.30;76.30;;;;;;5069475;28;20507;-80
2022/01/16 12:46:12;;;;;;;18.98;16.63;;;12.30;76.30;;;;;;5068202;28;20029;-88
2022/01/16 12:48:41;;;;;;;17.90;16.10;;;12.30;76.30;;;;;;5061943;28;20029;-91
2022/01/16 12:51:08;;;;;;;18.45;16.33;;;12.30;76.40;;;;;;5051304;28;20404;-91
2022/01/16 12:53:43;;;;;;;18.67;16.65;;;12.30;76.40;;;;;;5067004;28;20657;-90
2022/01/16 12:56:17;;;;;;;18.58;15.43;;;12.20;76.20;;;;;;5070183;28;20500;-91
2022/01/16 12:58:43;;;;;;;18.23;16.33;;;12.20;76.30;;;;;;5063287;28;20549;-93
2022/01/16 13:01:09;;;;;;;18.65;15.60;;;12.20;76.30;;;;;;5050635;28;20029;-77
2022/01/16 13:03:36;;;;;;;17.83;15.95;;;12.20;76.40;;;;;;5049865;28;20021;-78
2022/01/16 13:06:24;;;;;;;16.40;14.80;;;12.10;76.20;;;;;;5049235;28;20068;-77
2022/01/16 13:09:08;;;;;;;17.67;15.77;;;12.10;76.20;;;;;;5058451;28;20028;-76
2022/01/16 13:11:46;;;;;;;17.90;15.48;;;12.20;76.40;;;;;;5069449;28;20036;-81
2022/01/16 13:14:18;;;;;;;18.40;16.15;;;12.20;76.40;;;;;;5068149;28;20444;-78
2022/01/16 13:16:47;;;;;;;16.75;15.10;;;12.20;76.30;;;;;;5069398;28;20400;-77
2022/01/16 13:19:26;;;;;;;18.92;15.60;;;12.20;76.20;;;;;;5068400;28;20029;-76
2022/01/16 13:22:11;;;;;;;17.60;15.65;;;12.30;76.30;;;;;;5067913;28;20064;-76
2022/01/16 13:24:57;;;;;;;17.88;14.23;;;12.30;76.30;;;;;;5085054;28;20036;-76
2022/01/16 13:27:26;;;;;;;16.65;14.70;;;12.30;76.20;;;;;;5069822;28;20020;-75
2022/01/16 13:30:07;;;;;;;18.30;14.38;;;12.40;76.20;;;;;;5069409;28;20028;-75